Time;durP1;ratioP1;P1;durP2;ratioP2;P2;SDS_P1;SDS_P2;PMS_P1;PMS_P2;Temp;Humidity;BMP_temperature;BMP_pressure;BME280_temperature;BME280_humidity;BME280_pressure;Samples;Min_cycle;Max_cycle;Signal;HPM_P1;HPM_P2
2022/06/19 00:01:59;;;;;;;11.70;9.68;;;;;;;17.09;93.79;100448.59;5047966;28;20028;-35
2022/06/19 00:04:24;;;;;;;12.68;10.43;;;;;;;17.32;93.04;100452.88;5066866;28;20117;-33
2022/06/19 00:06:50;;;;;;;13.63;10.02;;;;;;;16.93;95.43;100444.91;5066530;28;20115;-29
2022/06/19 00:09:16;;;;;;;13.90;10.25;;;;;;;16.92;93.56;100431.66;5066617;28;20399;-29
2022/06/19 00:11:42;;;;;;;15.82;9.48;;;;;;;17.01;91.89;100440.94;5066514;28;20024;-32
2022/06/19 00:14:08;;;;;;;16.02;10.35;;;;;;;16.83;92.65;100440.19;5048279;28;20032;-33
2022/06/19 00:16:34;;;;;;;15.13;10.73;;;;;;;16.84;92.98;100431.06;5065011;28;20032;-35
2022/06/19 00:19:00;;;;;;;14.50;10.15;;;;;;;16.71;93.75;100444.06;5064919;28;20408;-32
2022/06/19 00:21:26;;;;;;;16.75;10.25;;;;;;;16.75;94.74;100451.38;5047960;28;20037;-32
2022/06/19 00:23:51;;;;;;;15.10;9.98;;;;;;;16.70;94.38;100440.56;5047693;28;20052;-30
2022/06/19 00:26:17;;;;;;;16.67;10.10;;;;;;;16.53;95.65;100445.16;5066104;28;20025;-31
2022/06/19 00:28:46;;;;;;;15.20;10.02;;;;;;;16.65;94.77;100444.00;5068714;28;20036;-31
2022/06/19 00:31:12;;;;;;;14.52;9.57;;;;;;;16.58;94.21;100431.78;5070003;28;20035;-30
2022/06/19 00:33:37;;;;;;;14.88;10.63;;;;;;;16.63;94.31;100439.91;5051761;28;20044;-31
2022/06/19 00:36:04;;;;;;;14.20;10.38;;;;;;;16.30;95.35;100428.19;5051645;28;20447;-30
2022/06/19 00:38:30;;;;;;;14.95;10.18;;;;;;;16.36;96.16;100446.03;5051175;28;20025;-32
2022/06/19 00:40:59;;;;;;;15.98;10.10;;;;;;;16.20;98.79;100450.41;5069618;28;20047;-29
2022/06/19 00:43:25;;;;;;;16.38;10.43;;;;;;;16.31;97.34;100448.66;5068242;28;20502;-31
2022/06/19 00:45:52;;;;;;;16.00;10.50;;;;;;;16.56;96.31;100445.50;5051430;28;20065;-30
2022/06/19 00:48:36;;;;;;;13.45;10.02;;;;;;;16.67;95.53;100443.75;5069653;28;20032;-32
2022/06/19 00:51:05;;;;;;;14.68;9.63;;;;;;;16.50;95.64;100448.38;5051457;28;20056;-29
2022/06/19 00:53:46;;;;;;;15.43;10.57;;;;;;;16.65;96.34;100437.78;5051561;28;20040;-30
2022/06/19 00:56:16;;;;;;;14.63;10.43;;;;;;;16.76;95.73;100444.94;5051574;28;20040;-30
2022/06/19 00:58:43;;;;;;;18.65;9.85;;;;;;;16.67;94.48;100444.56;5051242;28;20102;-30
2022/06/19 01:01:13;;;;;;;16.23;10.27;;;;;;;16.54;94.74;100425.28;5051144;28;20515;-32
2022/06/19 01:04:14;;;;;;;14.10;10.00;;;;;;;16.53;95.49;100450.56;5051002;28;20029;-33
2022/06/19 01:06:39;;;;;;;14.60;9.82;;;;;;;16.61;93.64;100448.25;5051353;28;20025;-30
2022/06/19 01:09:05;;;;;;;14.50;9.88;;;;;;;16.45;94.72;100433.78;5068954;28;20473;-30
2022/06/19 01:11:34;;;;;;;15.45;9.55;;;;;;;15.98;98.38;100442.25;5069239;28;20032;-31
2022/06/19 01:14:02;;;;;;;16.15;9.68;;;;;;;15.99;98.48;100441.19;5068538;28;20036;-30
2022/06/19 01:16:27;;;;;;;13.73;9.75;;;;;;;16.10;97.71;100442.16;5051215;28;20488;-29
2022/06/19 01:18:53;;;;;;;15.60;9.80;;;;;;;16.36;96.49;100456.78;5069027;28;20067;-30
2022/06/19 01:21:28;;;;;;;18.33;10.50;;;;;;;16.51;95.35;100453.50;5068887;28;20032;-33
2022/06/19 01:24:15;;;;;;;18.42;10.80;;;;;;;16.42;94.38;100465.75;5068556;28;20068;-32
2022/06/19 01:26:44;;;;;;;14.50;9.70;;;;;;;16.37;93.83;100441.47;5069094;28;20031;-32
2022/06/19 01:29:10;;;;;;;15.85;10.38;;;;;;;16.13;94.12;100435.47;5068907;28;20514;-32
2022/06/19 01:31:47;;;;;;;19.45;11.43;;;;;;;16.21;95.16;100451.19;5068864;28;20029;-30
2022/06/19 01:34:29;;;;;;;19.35;11.25;;;;;;;16.01;95.15;100449.81;5050558;28;20024;-29
2022/06/19 01:37:12;;;;;;;18.73;11.25;;;;;;;15.85;95.76;100445.25;5068603;28;20025;-30
2022/06/19 01:39:47;;;;;;;17.08;11.05;;;;;;;15.82;96.87;100459.22;5050769;28;20535;-29
2022/06/19 01:42:13;;;;;;;18.60;11.15;;;;;;;15.80;98.10;100464.00;5068707;28;20071;-33
2022/06/19 01:44:42;;;;;;;20.25;10.32;;;;;;;15.60;99.06;100462.56;5050304;28;20411;-30
2022/06/19 01:47:08;;;;;;;17.65;11.85;;;;;;;15.68;98.21;100445.22;5050423;28;20032;-29
2022/06/19 01:49:35;;;;;;;22.00;11.93;;;;;;;15.96;97.70;100463.19;5068187;28;20024;-33
2022/06/19 01:52:04;;;;;;;31.25;12.40;;;;;;;15.91;97.10;100455.03;5068312;28;20065;-34
2022/06/19 01:54:37;;;;;;;20.02;10.73;;;;;;;15.80;98.27;100458.63;5066662;28;20151;-33
2022/06/19 01:57:06;;;;;;;16.23;10.52;;;;;;;15.94;98.51;100469.91;5066965;28;20087;-31
2022/06/19 01:59:34;;;;;;;17.95;11.23;;;;;;;15.67;98.85;100455.19;5068169;28;20033;-30
2022/06/19 02:02:03;;;;;;;15.02;10.32;;;;;;;15.85;99.24;100467.59;5049572;28;20465;-30
2022/06/19 02:04:31;;;;;;;20.05;10.95;;;;;;;15.78;96.89;100450.81;5050051;28;20052;-31
2022/06/19 02:07:01;;;;;;;16.27;11.00;;;;;;;15.66;98.29;100448.16;5050038;28;20028;-31
2022/06/19 02:09:27;;;;;;;18.33;11.57;;;;;;;15.63;99.19;100470.16;5050009;28;20112;-32
2022/06/19 02:11:54;;;;;;;17.02;11.05;;;;;;;15.62;100.00;100463.13;5049756;28;20508;-29
2022/06/19 02:14:20;;;;;;;16.83;11.17;;;;;;;15.65;98.98;100448.38;5067809;28;20027;-32
2022/06/19 02:16:48;;;;;;;16.50;11.10;;;;;;;15.64;99.90;100444.09;5067922;28;20271;-34
2022/06/19 02:19:15;;;;;;;18.85;11.98;;;;;;;15.78;99.37;100444.63;5049947;28;20102;-34
2022/06/19 02:21:52;;;;;;;17.17;11.73;;;;;;;16.07;96.81;100462.28;5049640;28;20545;-34
2022/06/19 02:24:24;;;;;;;15.15;10.30;;;;;;;15.85;97.79;100467.59;5067927;28;20063;-31
2022/06/19 02:26:50;;;;;;;15.73;11.18;;;;;;;15.82;98.77;100469.97;5067502;28;20033;-29
2022/06/19 02:29:18;;;;;;;16.40;10.75;;;;;;;15.77;98.51;100459.09;5049762;28;20042;-31
2022/06/19 02:31:47;;;;;;;15.98;10.70;;;;;;;15.84;98.57;100470.53;5049601;28;20052;-29
2022/06/19 02:34:25;;;;;;;17.05;10.73;;;;;;;16.03;97.33;100474.59;5049679;28;20150;-35
2022/06/19 02:36:54;;;;;;;17.65;10.68;;;;;;;16.05;95.22;100461.72;5049355;28;20090;-33
2022/06/19 02:39:34;;;;;;;16.42;10.82;;;;;;;15.96;95.75;100457.81;5049288;28;20472;-29
2022/06/19 02:42:06;;;;;;;20.08;11.18;;;;;;;15.99;95.09;100478.84;5049190;28;20085;-31
2022/06/19 02:44:35;;;;;;;16.67;10.98;;;;;;;15.53;97.70;100480.72;5067440;28;20039;-31
2022/06/19 02:47:01;;;;;;;16.85;10.43;;;;;;;15.63;98.81;100472.84;5049114;28;20119;-31
2022/06/19 02:49:27;;;;;;;16.77;10.35;;;;;;;15.71;98.55;100468.94;5049081;28;20108;-32
2022/06/19 02:51:52;;;;;;;16.42;10.10;;;;;;;15.60;97.29;100459.88;5048244;28;20506;-33
2022/06/19 02:54:17;;;;;;;13.95;10.63;;;;;;;15.62;98.08;100467.72;5067383;28;20055;-29
2022/06/19 02:56:43;;;;;;;17.60;10.82;;;;;;;15.70;96.57;100472.69;5065877;28;20024;-29
2022/06/19 02:59:08;;;;;;;15.30;10.38;;;;;;;15.49;97.98;100463.47;5067445;28;20078;-30
2022/06/19 03:01:34;;;;;;;17.05;11.20;;;;;;;15.61;98.60;100468.75;5067158;28;20089;-30
2022/06/19 03:03:59;;;;;;;18.95;10.82;;;;;;;15.23;100.00;100448.72;5048872;28;20036;-29
2022/06/19 03:06:25;;;;;;;16.23;10.27;;;;;;;15.59;97.81;100452.03;5067027;28;20030;-30
2022/06/19 03:08:50;;;;;;;18.05;10.38;;;;;;;15.29;97.96;100441.59;5067259;28;20476;-30
2022/06/19 03:11:15;;;;;;;16.27;10.68;;;;;;;15.71;96.32;100466.22;5067416;28;20045;-32
2022/06/19 03:13:41;;;;;;;19.80;10.95;;;;;;;15.66;95.95;100469.66;5067014;28;20036;-35
2022/06/19 03:16:07;;;;;;;15.77;11.18;;;;;;;15.39;96.77;100447.16;5048638;28;20036;-32
2022/06/19 03:18:34;;;;;;;16.73;11.25;;;;;;;15.48;96.93;100467.19;5048676;28;20111;-31
2022/06/19 03:21:00;;;;;;;16.40;11.05;;;;;;;15.44;98.59;100449.91;5048365;28;20021;-31
2022/06/19 03:23:26;;;;;;;19.85;11.13;;;;;;;15.50;99.09;100462.38;5048827;28;20492;-29
2022/06/19 03:25:52;;;;;;;20.13;11.93;;;;;;;15.77;97.03;100441.13;5048766;28;20180;-31
2022/06/19 03:28:18;;;;;;;18.95;11.68;;;;;;;15.65;97.62;100456.44;5048795;28;20028;-33
2022/06/19 03:30:43;;;;;;;18.10;12.00;;;;;;;15.50;99.07;100467.75;5065464;28;20035;-30
2022/06/19 03:33:09;;;;;;;23.38;13.35;;;;;;;15.47;100.00;100465.56;5066915;28;20032;-30
2022/06/19 03:35:34;;;;;;;19.15;13.07;;;;;;;15.41;100.00;100450.41;5066404;28;20028;-32
2022/06/19 03:38:00;;;;;;;19.95;13.13;;;;;;;15.68;99.38;100464.06;5065321;28;20024;-30
2022/06/19 03:40:26;;;;;;;20.02;13.93;;;;;;;15.71;99.40;100465.44;5048459;28;20077;-30
2022/06/19 03:42:51;;;;;;;21.08;14.32;;;;;;;15.70;99.74;100459.25;5067043;28;20054;-29
2022/06/19 03:45:17;;;;;;;20.38;13.00;;;;;;;15.82;100.00;100468.09;5067255;28;20093;-33
2022/06/19 03:47:42;;;;;;;23.60;13.93;;;;;;;15.58;100.00;100435.09;5066739;28;20048;-32
2022/06/19 03:50:14;;;;;;;18.45;13.30;;;;;;;15.71;100.00;100466.22;5066404;28;20484;-33
2022/06/19 03:52:40;;;;;;;19.50;13.27;;;;;;;15.51;100.00;100455.97;5048833;28;20036;-30
2022/06/19 03:55:07;;;;;;;22.60;14.20;;;;;;;15.52;100.00;100452.22;5066780;28;20029;-30
2022/06/19 03:57:32;;;;;;;21.08;14.43;;;;;;;15.66;100.00;100442.78;5048501;28;20670;-35
2022/06/19 03:59:58;;;;;;;19.08;13.75;;;;;;;15.88;100.00;100462.81;5048552;28;20055;-30
2022/06/19 04:02:23;;;;;;;17.42;13.00;;;;;;;15.86;100.00;100465.72;5067195;28;20056;-33
2022/06/19 04:04:49;;;;;;;19.30;13.43;;;;;;;15.91;100.00;100449.66;5070314;28;20039;-32
2022/06/19 04:07:15;;;;;;;21.50;14.85;;;;;;;16.02;100.00;100456.03;5070604;28;20029;-34
2022/06/19 04:09:41;;;;;;;20.65;13.15;;;;;;;16.14;100.00;100464.84;5068976;28;20060;-30
2022/06/19 04:12:07;;;;;;;20.52;13.40;;;;;;;16.12;100.00;100466.97;5070199;28;20100;-31
2022/06/19 04:14:32;;;;;;;20.92;13.23;;;;;;;16.02;100.00;100446.09;5052075;28;20043;-31
2022/06/19 04:16:58;;;;;;;19.60;13.63;;;;;;;16.32;100.00;100471.00;5070254;28;20036;-35
2022/06/19 04:19:23;;;;;;;20.73;14.05;;;;;;;16.62;100.00;100470.63;5069902;28;20029;-31
2022/06/19 04:21:49;;;;;;;21.17;14.00;;;;;;;16.81;100.00;100469.25;5069838;28;20462;-31
2022/06/19 04:24:17;;;;;;;20.35;13.35;;;;;;;16.79;100.00;100473.25;5051806;28;20052;-30
2022/06/19 04:26:43;;;;;;;19.00;14.02;;;;;;;16.64;100.00;100468.50;5068790;28;20032;-33
2022/06/19 04:29:10;;;;;;;15.68;12.45;;;;;;;16.80;100.00;100485.66;5070177;28;20090;-34
2022/06/19 04:31:36;;;;;;;18.42;12.95;;;;;;;17.05;100.00;100469.03;5051967;28;20031;-31
2022/06/19 04:34:02;;;;;;;20.00;13.18;;;;;;;17.07;100.00;100478.47;5069593;28;20032;-32
2022/06/19 04:36:30;;;;;;;19.15;14.00;;;;;;;17.10;100.00;100477.19;5068635;28;20148;-31
2022/06/19 04:38:56;;;;;;;19.30;13.90;;;;;;;17.27;100.00;100483.28;5068471;28;20186;-34
2022/06/19 04:41:28;;;;;;;19.40;12.80;;;;;;;17.34;100.00;100468.78;5051419;28;20024;-30
2022/06/19 04:43:56;;;;;;;16.17;13.73;;;;;;;17.31;100.00;100472.81;5051415;28;20067;-30
2022/06/19 04:46:22;;;;;;;18.50;12.98;;;;;;;17.38;99.95;100464.53;5068035;28;20036;-30
2022/06/19 04:48:49;;;;;;;17.55;12.55;;;;;;;17.41;100.00;100458.63;5051731;28;20040;-30
2022/06/19 04:51:15;;;;;;;17.13;12.73;;;;;;;17.55;99.22;100462.56;5068324;28;20029;-29
2022/06/19 04:53:40;;;;;;;18.92;12.85;;;;;;;17.75;98.58;100477.28;5068346;28;20043;-33
2022/06/19 04:56:07;;;;;;;15.63;13.23;;;;;;;17.63;100.00;100478.25;5069176;28;20028;-30
2022/06/19 04:58:33;;;;;;;16.33;12.35;;;;;;;17.78;98.74;100482.97;5051334;28;20115;-29
2022/06/19 05:01:01;;;;;;;14.38;11.93;;;;;;;17.82;97.52;100483.28;5069219;28;20165;-32
2022/06/19 05:03:27;;;;;;;14.13;11.25;;;;;;;17.89;98.24;100478.50;5050739;28;20452;-33
2022/06/19 05:05:53;;;;;;;13.63;11.52;;;;;;;18.14;95.97;100490.56;5050996;28;20032;-32
2022/06/19 05:08:19;;;;;;;15.65;11.80;;;;;;;18.04;96.84;100486.72;5051006;28;20033;-30
2022/06/19 05:10:45;;;;;;;15.95;11.18;;;;;;;18.14;96.36;100474.38;5069177;28;20032;-30
2022/06/19 05:13:19;;;;;;;14.45;12.00;;;;;;;18.32;97.19;100492.84;5050441;28;20722;-32
2022/06/19 05:15:45;;;;;;;13.95;10.93;;;;;;;18.38;96.34;100491.81;5068951;28;20064;-32
2022/06/19 05:18:11;;;;;;;13.52;10.65;;;;;;;18.53;94.75;100496.53;5050591;28;20024;-31
2022/06/19 05:20:37;;;;;;;14.13;11.20;;;;;;;18.50;95.37;100493.53;5068953;28;20039;-31
2022/06/19 05:23:03;;;;;;;15.60;11.48;;;;;;;18.58;95.06;100493.03;5050699;28;20051;-30
2022/06/19 05:25:29;;;;;;;15.68;10.70;;;;;;;18.67;95.36;100491.44;5050720;28;20033;-34
2022/06/19 05:27:54;;;;;;;14.45;11.63;;;;;;;18.71;95.21;100503.34;5068423;28;20029;-31
2022/06/19 05:30:20;;;;;;;16.48;11.20;;;;;;;18.67;95.30;100503.09;5068553;28;20031;-32
2022/06/19 05:32:45;;;;;;;13.90;10.77;;;;;;;18.97;95.22;100492.69;5068831;28;20028;-34
2022/06/19 05:35:11;;;;;;;12.05;10.25;;;;;;;18.93;94.50;100500.53;5068767;28;20541;-34
2022/06/19 05:37:36;;;;;;;12.98;10.13;;;;;;;18.95;93.66;100478.63;5050499;28;20035;-34
2022/06/19 05:40:02;;;;;;;12.20;10.30;;;;;;;19.38;92.50;100509.06;5068276;28;20028;-31
2022/06/19 05:42:27;;;;;;;13.35;10.10;;;;;;;19.47;92.85;100512.84;5050241;28;20538;-32
2022/06/19 05:44:53;;;;;;;13.57;10.00;;;;;;;19.66;91.29;100510.47;5066972;28;20819;-31
2022/06/19 05:47:18;;;;;;;12.55;10.85;;;;;;;19.76;91.74;100504.28;5068462;28;20033;-33
2022/06/19 05:49:44;;;;;;;13.80;10.73;;;;;;;19.98;90.22;100507.56;5068369;28;20028;-30
2022/06/19 05:52:16;;;;;;;12.13;10.02;;;;;;;20.00;89.20;100510.81;5033351;28;20044;-34
2022/06/19 05:54:42;;;;;;;14.68;10.25;;;;;;;19.98;88.96;100476.94;5066805;28;20029;-31
2022/06/19 05:57:07;;;;;;;15.45;10.02;;;;;;;20.12;88.22;100517.81;5066625;28;20032;-29
2022/06/19 05:59:33;;;;;;;14.43;9.60;;;;;;;20.20;87.61;100515.38;5068152;28;20032;-31
2022/06/19 06:01:58;;;;;;;15.38;10.32;;;;;;;20.35;87.19;100514.56;5067842;28;20039;-31
2022/06/19 06:04:24;;;;;;;10.57;9.25;;;;;;;20.51;87.56;100509.09;5068167;28;20035;-30
2022/06/19 06:06:49;;;;;;;11.90;9.35;;;;;;;20.67;83.54;100497.16;5049807;28;20037;-32
2022/06/19 06:09:15;;;;;;;12.07;8.60;;;;;;;20.78;83.33;100504.19;5067941;28;20052;-30
2022/06/19 06:11:41;;;;;;;11.35;8.77;;;;;;;20.85;83.97;100503.91;5049704;28;20054;-31
2022/06/19 06:14:06;;;;;;;10.13;8.10;;;;;;;20.93;81.64;100506.03;5067635;28;20052;-34
2022/06/19 06:16:32;;;;;;;9.52;7.68;;;;;;;21.09;79.52;100493.22;5068013;28;20047;-33
2022/06/19 06:18:57;;;;;;;8.82;7.57;;;;;;;21.14;79.30;100503.22;5049530;28;20028;-35
2022/06/19 06:21:24;;;;;;;10.20;7.45;;;;;;;21.19;80.13;100492.38;5067679;28;20039;-31
2022/06/19 06:23:51;;;;;;;8.85;7.30;;;;;;;21.46;81.72;100508.25;5049099;28;20133;-30
2022/06/19 06:26:26;;;;;;;10.10;6.37;;;;;;;21.42;76.77;100507.16;5066767;28;20042;-33
2022/06/19 06:28:53;;;;;;;8.27;7.07;;;;;;;21.32;79.24;100501.78;5049574;28;20507;-33
2022/06/19 06:31:19;;;;;;;9.07;7.38;;;;;;;21.34;77.17;100489.56;5049535;28;20122;-31
2022/06/19 06:33:46;;;;;;;8.68;6.75;;;;;;;21.31;75.81;100483.88;5049244;28;20175;-33
2022/06/19 06:36:12;;;;;;;9.30;7.28;;;;;;;21.62;77.18;100479.91;5067503;28;20029;-31
2022/06/19 06:38:39;;;;;;;8.63;7.00;;;;;;;21.80;77.86;100492.00;5067348;28;20040;-31
2022/06/19 06:41:07;;;;;;;7.68;6.25;;;;;;;21.90;75.08;100504.66;5048701;28;20024;-33
2022/06/19 06:43:35;;;;;;;8.35;6.00;;;;;;;21.83;74.52;100485.19;5049345;28;20086;-31
2022/06/19 06:46:04;;;;;;;;;;;;;;;22.33;72.93;100504.88;5049401;28;20174;-36
2022/06/19 06:48:30;;;;;;;7.80;5.57;;;;;;;22.35;70.23;100499.97;5049191;28;19959;-30
2022/06/19 06:50:55;;;;;;;7.57;5.45;;;;;;;22.26;67.02;100488.09;5065638;28;20028;-31
2022/06/19 06:53:21;;;;;;;8.50;5.10;;;;;;;22.55;71.67;100503.56;5067119;28;20498;-30
2022/06/19 06:55:46;;;;;;;10.68;5.50;;;;;;;22.64;70.08;100496.41;5048771;28;20033;-33
2022/06/19 06:58:12;;;;;;;8.68;5.00;;;;;;;22.92;64.90;100493.91;5067284;28;20101;-32
2022/06/19 07:00:38;;;;;;;5.88;4.47;;;;;;;23.04;63.62;100489.69;5066881;28;20062;-33
2022/06/19 07:03:04;;;;;;;7.68;5.20;;;;;;;23.23;65.40;100497.88;5049123;28;20477;-33
2022/06/19 07:05:30;;;;;;;6.53;4.85;;;;;;;23.26;65.13;100500.00;5048917;28;20020;-29
2022/06/19 07:07:56;;;;;;;9.18;4.93;;;;;;;23.46;64.25;100492.66;5066673;28;20411;-30
2022/06/19 07:10:21;;;;;;;8.80;4.40;;;;;;;23.41;61.16;100484.56;5048561;28;20031;-35
2022/06/19 07:12:48;;;;;;;6.60;4.70;;;;;;;23.30;63.02;100483.91;5048869;28;20086;-31
2022/06/19 07:15:14;;;;;;;6.07;4.72;;;;;;;23.41;65.63;100495.44;5048804;28;20038;-30
2022/06/19 07:17:39;;;;;;;6.75;4.20;;;;;;;23.39;60.30;100479.41;5066924;28;20028;-31
2022/06/19 07:20:06;;;;;;;5.68;4.25;;;;;;;23.68;59.01;100483.91;5066623;28;20028;-30
2022/06/19 07:22:32;;;;;;;6.50;4.20;;;;;;;23.90;58.57;100480.56;5048550;28;20048;-31
2022/06/19 07:24:57;;;;;;;5.85;4.10;;;;;;;23.97;60.70;100475.53;5048950;28;20064;-32
2022/06/19 07:27:23;;;;;;;5.72;4.30;;;;;;;24.33;61.35;100483.06;5067308;28;20028;-35
2022/06/19 07:29:48;;;;;;;6.28;4.53;;;;;;;24.76;61.51;100491.00;5066465;28;20264;-32
2022/06/19 07:32:14;;;;;;;6.70;5.07;;;;;;;24.79;59.32;100490.41;5066706;28;20036;-30
2022/06/19 07:34:41;;;;;;;6.40;3.80;;;;;;;24.76;56.31;100496.44;5066663;28;20029;-31
2022/06/19 07:37:07;;;;;;;5.43;3.83;;;;;;;24.68;57.14;100491.69;5050044;28;20554;-32
2022/06/19 07:39:34;;;;;;;5.88;3.17;;;;;;;24.68;52.70;100491.69;5070812;28;20036;-33
2022/06/19 07:41:59;;;;;;;6.60;3.42;;;;;;;24.97;56.37;100490.59;5052493;28;20037;-31
2022/06/19 07:44:25;;;;;;;5.38;3.13;;;;;;;24.85;56.05;100494.63;5052342;28;20028;-32
2022/06/19 07:52:19;;;;;;;6.97;3.50;;;;;;;25.76;54.16;100481.16;5070507;28;20671;-32
2022/06/19 07:54:44;;;;;;;4.93;3.38;;;;;;;26.21;52.25;100479.22;5070279;28;20471;-33
2022/06/19 07:57:10;;;;;;;18.63;4.57;;;;;;;26.16;52.84;100487.56;5052442;28;20115;-32
2022/06/19 07:59:35;;;;;;;8.15;6.20;;;;;;;26.12;50.48;100470.19;5070269;28;20021;-31
2022/06/19 08:02:01;;;;;;;5.47;3.17;;;;;;;26.31;46.89;100478.16;5069986;28;20101;-30
2022/06/19 08:04:26;;;;;;;5.57;2.78;;;;;;;26.26;46.96;100475.56;5070082;28;20016;-32
2022/06/19 08:06:52;;;;;;;4.53;2.92;;;;;;;26.20;48.26;100477.63;5070667;28;20521;-30
2022/06/19 08:09:17;;;;;;;5.68;2.83;;;;;;;26.32;47.24;100479.78;5052334;28;20028;-32
2022/06/19 08:11:43;;;;;;;4.40;2.58;;;;;;;26.27;46.62;100471.69;5069943;28;20165;-31
2022/06/19 08:14:08;;;;;;;3.78;2.13;;;;;;;26.72;46.31;100478.97;5069883;28;20039;-32
2022/06/19 08:16:34;;;;;;;4.43;2.10;;;;;;;26.78;43.07;100464.03;5069745;28;20059;-35
2022/06/19 08:19:00;;;;;;;4.38;2.00;;;;;;;26.98;42.76;100476.31;5069815;28;20117;-35
2022/06/19 08:21:26;;;;;;;9.15;3.08;;;;;;;27.35;43.59;100477.66;5051400;28;20032;-30
2022/06/19 08:23:51;;;;;;;5.07;2.75;;;;;;;27.15;43.32;100473.56;5069664;28;20049;-32
2022/06/19 08:26:16;;;;;;;2.60;1.85;;;;;;;26.88;43.69;100469.19;5051839;28;20547;-31
2022/06/19 08:31:19;;;;;;;5.70;2.58;;;;;;;26.60;41.30;100474.09;5069705;28;20040;-35
2022/06/19 08:33:44;;;;;;;4.68;2.25;;;;;;;26.51;44.69;100465.03;5069344;28;20095;-32
2022/06/19 08:36:11;;;;;;;7.13;2.20;;;;;;;25.85;43.30;100465.66;5051273;28;20086;-32
2022/06/19 08:38:44;;;;;;;5.50;1.65;;;;;;;26.44;38.86;100455.38;5051499;28;20032;-38
2022/06/19 08:41:23;;;;;;;3.13;1.42;;;;;;;26.37;38.33;100471.41;5069527;28;20060;-32
2022/06/19 08:44:06;;;;;;;3.35;1.33;;;;;;;26.02;40.66;100463.03;5050929;28;20033;-30
2022/06/19 08:46:47;;;;;;;7.28;3.35;;;;;;;25.36;42.79;100453.75;5069633;28;20031;-31
2022/06/19 08:49:35;;;;;;;4.50;1.50;;;;;;;25.95;42.85;100454.50;5068867;28;20120;-30
2022/06/19 08:52:12;;;;;;;4.85;1.80;;;;;;;26.29;41.20;100455.78;5069100;28;20032;-33
2022/06/19 08:54:53;;;;;;;4.93;1.80;;;;;;;26.73;35.14;100454.03;5051383;28;20194;-30
2022/06/19 08:57:28;;;;;;;3.35;1.52;;;;;;;27.09;36.49;100460.38;5069604;28;20047;-31
2022/06/19 09:00:05;;;;;;;1.60;1.20;;;;;;;27.12;35.25;100457.81;5068950;28;20103;-33
2022/06/19 09:02:33;;;;;;;1.88;1.30;;;;;;;27.33;33.61;100449.78;5050958;28;20025;-36
2022/06/19 09:05:38;;;;;;;2.60;1.17;;;;;;;27.37;32.63;100439.78;5050840;28;20155;-31
2022/06/19 09:08:13;;;;;;;3.40;1.70;;;;;;;27.61;35.50;100458.47;5069080;28;20031;-29
2022/06/19 09:10:49;;;;;;;1.92;1.40;;;;;;;27.74;37.25;100453.94;5069032;28;20024;-31
2022/06/19 09:13:42;;;;;;;4.72;1.63;;;;;;;27.86;39.22;100456.00;5068883;28;20028;-31
2022/06/19 09:16:15;;;;;;;5.10;1.60;;;;;;;27.22;35.46;100449.28;5050684;28;20492;-30
2022/06/19 09:19:02;;;;;;;4.63;1.48;;;;;;;26.57;37.81;100447.38;5050815;28;20043;-33
2022/06/19 09:21:57;;;;;;;4.40;1.60;;;;;;;27.02;37.59;100444.44;5050437;28;20033;-30
2022/06/19 09:24:28;;;;;;;4.32;1.33;;;;;;;27.35;33.61;100450.28;5050420;28;20045;-30
2022/06/19 09:26:59;;;;;;;2.78;1.60;;;;;;;27.96;35.74;100446.69;5050691;28;20044;-30
2022/06/19 09:29:33;;;;;;;3.70;1.65;;;;;;;28.31;36.25;100446.56;5068474;28;20024;-33
2022/06/19 09:32:02;;;;;;;2.30;1.40;;;;;;;27.92;36.11;100446.50;5068104;28;20127;-30
2022/06/19 09:34:41;;;;;;;4.85;1.52;;;;;;;28.17;32.63;100444.81;5050702;28;20488;-30
2022/06/19 09:37:17;;;;;;;3.38;1.38;;;;;;;28.27;31.29;100443.66;5050539;28;20436;-30
2022/06/19 09:39:52;;;;;;;2.60;1.30;;;;;;;27.79;31.78;100447.50;5050370;28;20170;-35
2022/06/19 09:43:04;;;;;;;3.88;1.50;;;;;;;27.59;37.89;100438.03;5050084;28;20029;-32
2022/06/19 09:45:51;;;;;;;5.53;1.90;;;;;;;27.68;36.82;100435.25;5068540;28;20047;-30
2022/06/19 09:48:19;;;;;;;4.65;1.67;;;;;;;27.98;34.96;100437.00;5050245;28;20561;-33
2022/06/19 09:51:00;;;;;;;5.82;1.60;;;;;;;28.30;32.23;100433.97;5049810;28;20043;-30
2022/06/19 09:53:32;;;;;;;3.28;1.50;;;;;;;28.85;35.46;100428.38;5068237;28;20109;-36
2022/06/19 09:56:36;;;;;;;3.00;1.35;;;;;;;29.21;31.84;100429.72;5049708;28;20035;-37
2022/06/19 09:59:18;;;;;;;2.40;1.23;;;;;;;29.02;32.69;100437.63;5060874;28;20036;-33
2022/06/19 10:01:47;;;;;;;2.70;1.40;;;;;;;28.83;33.31;100418.84;5066995;28;20035;-32
2022/06/19 10:04:22;;;;;;;2.55;1.40;;;;;;;29.01;30.14;100425.00;5067925;28;20031;-33
2022/06/19 10:06:57;;;;;;;3.97;1.50;;;;;;;29.54;30.26;100426.19;5067800;28;20438;-30
2022/06/19 10:09:43;;;;;;;2.38;1.30;;;;;;;29.86;31.84;100425.75;5067514;28;20032;-31
2022/06/19 10:12:16;;;;;;;3.17;1.40;;;;;;;29.60;34.21;100408.34;5049686;28;20031;-32
2022/06/19 10:14:46;;;;;;;3.25;2.05;;;;;;;29.15;35.29;100402.81;5049748;28;20039;-31
2022/06/19 10:17:42;;;;;;;83.95;19.48;;;;;;;28.97;33.83;100418.59;5049665;28;20491;-30
2022/06/19 10:20:12;;;;;;;38.22;9.40;;;;;;;29.05;33.54;100417.72;5049373;28;20031;-32
2022/06/19 10:22:56;;;;;;;19.73;5.28;;;;;;;28.77;36.07;100415.50;5067621;28;20516;-30
2022/06/19 10:26:00;;;;;;;3.67;1.70;;;;;;;29.23;31.63;100419.22;5067530;28;20024;-33
2022/06/19 10:28:41;;;;;;;2.33;1.48;;;;;;;29.51;32.26;100410.41;5066835;28;20036;-33
2022/06/19 10:31:41;;;;;;;2.08;1.20;;;;;;;29.94;31.65;100411.13;5049073;28;20036;-33
2022/06/19 10:34:35;;;;;;;9.55;2.75;;;;;;;29.75;31.72;100406.94;5067349;28;20035;-36
2022/06/19 10:37:00;;;;;;;1.27;1.05;;;;;;;30.08;30.19;100405.25;5049268;28;20024;-30
2022/06/19 10:39:29;;;;;;;2.35;1.30;;;;;;;30.20;30.57;100402.53;5067035;28;20114;-32
2022/06/19 10:42:00;;;;;;;2.25;1.30;;;;;;;29.96;30.78;100404.13;5067083;28;20119;-38
2022/06/19 10:44:52;;;;;;;15.48;11.02;;;;;;;30.50;30.72;100394.84;5067301;28;20036;-32
2022/06/19 10:47:55;;;;;;;7.00;2.38;;;;;;;30.59;27.36;100397.50;5067376;28;20123;-30
2022/06/19 10:50:48;;;;;;;3.30;1.45;;;;;;;30.89;28.02;100388.97;5067077;28;20029;-31
2022/06/19 10:53:44;;;;;;;171.68;33.75;;;;;;;31.10;26.82;100392.34;5066784;28;20064;-33
2022/06/19 10:56:28;;;;;;;24.13;5.47;;;;;;;31.16;26.07;100385.44;5066858;28;20507;-30
2022/06/19 10:58:55;;;;;;;19.70;5.00;;;;;;;31.33;27.75;100386.28;5067060;28;20133;-30
2022/06/19 11:04:15;;;;;;;4.90;1.80;;;;;;;30.58;27.94;100382.13;5066991;28;20035;-30
2022/06/19 11:07:06;;;;;;;12.65;3.28;;;;;;;30.71;31.58;100361.69;5066802;28;20462;-30
2022/06/19 11:09:40;;;;;;;3.17;1.73;;;;;;;30.21;30.68;100368.38;5048827;28;20035;-33
2022/06/19 11:12:13;;;;;;;5.10;1.55;;;;;;;30.83;29.64;100361.66;5048344;28;20806;-31
2022/06/19 11:14:49;;;;;;;5.35;1.77;;;;;;;31.39;28.90;100360.88;5048877;28;20024;-33
2022/06/19 11:17:36;;;;;;;1.88;1.20;;;;;;;31.26;28.15;100364.03;5066899;28;20032;-30
2022/06/19 11:20:31;;;;;;;3.10;1.42;;;;;;;31.21;27.85;100363.13;5047986;28;20032;-32
2022/06/19 11:23:22;;;;;;;2.47;1.30;;;;;;;31.65;27.87;100359.63;5057596;28;20067;-30
2022/06/19 11:25:59;;;;;;;4.45;1.30;;;;;;;31.53;26.47;100363.25;5048423;28;20444;-33
2022/06/19 11:28:47;;;;;;;5.97;2.22;;;;;;;31.00;29.48;100357.06;5048434;28;20086;-35
2022/06/19 11:31:18;;;;;;;4.38;1.73;;;;;;;30.08;27.77;100351.09;5066780;28;20032;-32
2022/06/19 11:33:46;;;;;;;1.88;1.30;;;;;;;29.57;30.16;100361.53;5048699;28;20035;-31
2022/06/19 11:36:30;;;;;;;4.35;1.55;;;;;;;29.05;31.62;100374.59;5048482;28;20029;-30
2022/06/19 11:38:55;;;;;;;2.60;1.50;;;;;;;28.72;32.86;100363.53;5066381;28;20029;-35
2022/06/19 11:41:21;;;;;;;4.28;1.60;;;;;;;29.08;33.32;100367.63;5066876;28;20081;-30
2022/06/19 11:44:05;;;;;;;4.18;1.63;;;;;;;28.87;33.53;100367.63;5066411;28;20031;-37